Time;durP1;ratioP1;P1;durP2;ratioP2;P2;SDS_P1;SDS_P2;PMS_P1;PMS_P2;Temp;Humidity;BMP_temperature;BMP_pressure;BME280_temperature;BME280_humidity;BME280_pressure;Samples;Min_cycle;Max_cycle;Signal;HPM_P1;HPM_P2
2022/06/30 00:01:54;;;;;;;6.00;1.10;;;19.60;99.90;;;;;;5023902;28;20018;-69
2022/06/30 00:04:19;;;;;;;1.80;1.15;;;19.60;99.90;;;;;;5024301;28;20034;-69
2022/06/30 00:06:45;;;;;;;2.75;1.58;;;19.50;99.90;;;;;;5024135;28;20034;-68
2022/06/30 00:09:11;;;;;;;1.50;1.10;;;19.50;99.90;;;;;;5023179;28;20105;-69
2022/06/30 00:11:36;;;;;;;3.55;1.30;;;19.40;99.90;;;;;;5024168;28;20029;-69
2022/06/30 00:14:05;;;;;;;2.47;1.02;;;19.40;99.90;;;;;;5023902;28;20030;-69
2022/06/30 00:16:37;;;;;;;2.13;1.38;;;19.40;99.90;;;;;;5023539;28;20032;-70
2022/06/30 00:19:02;;;;;;;1.17;0.93;;;19.30;99.90;;;;;;5023274;28;20034;-69
2022/06/30 00:21:28;;;;;;;2.25;1.45;;;19.30;99.90;;;;;;5023475;28;20022;-68
2022/06/30 00:23:53;;;;;;;7.47;1.25;;;19.20;99.90;;;;;;5023835;28;20046;-68
2022/06/30 00:26:22;;;;;;;2.15;1.08;;;19.20;99.90;;;;;;5024166;28;20462;-68
2022/06/30 00:28:47;;;;;;;3.75;1.40;;;19.10;99.90;;;;;;5023895;28;20021;-69
2022/06/30 00:31:13;;;;;;;6.60;1.02;;;19.10;99.90;;;;;;5023713;28;20017;-68
2022/06/30 00:33:38;;;;;;;2.10;1.65;;;19.00;99.90;;;;;;5023763;28;20034;-68
2022/06/30 00:36:04;;;;;;;3.67;1.65;;;19.00;99.90;;;;;;5023082;28;20034;-69
2022/06/30 00:38:30;;;;;;;1.70;1.10;;;19.00;99.90;;;;;;5023498;28;20033;-68
2022/06/30 00:41:10;;;;;;;2.22;1.38;;;19.00;99.90;;;;;;5023569;28;20112;-69
2022/06/30 00:43:46;;;;;;;4.10;1.60;;;19.00;99.90;;;;;;5023504;28;20029;-69
2022/06/30 00:46:12;;;;;;;1.60;1.17;;;19.00;99.90;;;;;;5022376;28;20065;-69
2022/06/30 00:48:39;;;;;;;3.28;1.15;;;18.90;99.90;;;;;;5023353;28;20168;-68
2022/06/30 00:51:05;;;;;;;2.63;1.25;;;18.90;99.90;;;;;;5023215;28;20026;-68
2022/06/30 00:53:41;;;;;;;1.67;0.90;;;18.90;99.90;;;;;;5022838;28;20022;-69
2022/06/30 00:56:08;;;;;;;2.50;1.52;;;18.90;99.90;;;;;;5022920;28;20053;-68
2022/06/30 00:58:38;;;;;;;1.83;1.27;;;18.90;99.90;;;;;;5022811;28;20037;-69
2022/06/30 01:01:04;;;;;;;3.55;1.55;;;18.80;99.90;;;;;;5022718;28;20030;-68
2022/06/30 01:03:32;;;;;;;4.05;1.48;;;18.80;99.90;;;;;;5022716;28;20025;-68
2022/06/30 01:06:01;;;;;;;2.10;1.20;;;18.80;99.90;;;;;;5022951;28;20022;-69
2022/06/30 01:08:29;;;;;;;1.90;1.10;;;18.70;99.90;;;;;;5022842;28;20081;-69
2022/06/30 01:13:39;;;;;;;7.25;1.23;;;18.60;99.90;;;;;;5022805;28;20065;-69
2022/06/30 01:16:04;;;;;;;10.52;1.38;;;18.50;99.90;;;;;;5022668;28;20030;-69
2022/06/30 01:18:33;;;;;;;2.03;1.33;;;18.40;99.90;;;;;;5022475;28;20026;-68
2022/06/30 01:20:59;;;;;;;3.95;1.45;;;18.50;99.90;;;;;;5021623;28;20125;-68
2022/06/30 01:23:32;;;;;;;2.13;1.27;;;18.40;99.90;;;;;;5022426;28;20466;-69
2022/06/30 01:25:57;;;;;;;2.97;1.25;;;18.40;99.90;;;;;;5022729;28;20470;-68
2022/06/30 01:28:23;;;;;;;2.55;1.17;;;18.30;99.90;;;;;;5022839;28;20989;-69
2022/06/30 01:30:49;;;;;;;2.25;1.20;;;18.30;99.90;;;;;;5022520;28;20034;-68
2022/06/30 01:33:14;;;;;;;1.77;0.90;;;18.30;99.90;;;;;;5022214;28;20041;-69
2022/06/30 01:35:40;;;;;;;2.40;1.27;;;18.20;99.90;;;;;;5022444;28;20029;-68
2022/06/30 01:38:06;;;;;;;2.97;1.30;;;18.10;99.90;;;;;;5021873;28;20037;-69
2022/06/30 01:40:35;;;;;;;2.70;1.30;;;18.20;99.90;;;;;;5022186;28;20108;-68
2022/06/30 01:43:03;;;;;;;2.08;1.70;;;18.10;99.90;;;;;;5022469;28;20030;-68
2022/06/30 01:45:29;;;;;;;1.45;1.10;;;18.10;99.90;;;;;;5021303;28;20482;-69
2022/06/30 01:47:55;;;;;;;1.63;1.10;;;18.10;99.90;;;;;;5022486;28;20036;-69
2022/06/30 01:50:29;;;;;;;3.05;1.45;;;18.10;99.90;;;;;;5022337;28;20014;-70
2022/06/30 01:52:56;;;;;;;3.45;1.50;;;18.00;99.90;;;;;;5022249;28;20033;-69
2022/06/30 01:55:22;;;;;;;1.88;1.30;;;18.00;99.90;;;;;;5022189;28;20466;-69
2022/06/30 01:57:48;;;;;;;3.00;1.38;;;18.00;99.90;;;;;;5021954;28;20033;-68
2022/06/30 02:00:19;;;;;;;1.90;1.23;;;18.00;99.90;;;;;;5021990;28;20050;-68
2022/06/30 02:02:46;;;;;;;2.20;1.08;;;17.90;99.90;;;;;;5022554;28;20036;-68
2022/06/30 02:05:12;;;;;;;3.83;1.40;;;18.00;99.90;;;;;;5021919;28;20034;-68
2022/06/30 02:07:39;;;;;;;1.75;1.23;;;17.90;99.90;;;;;;5021661;28;20082;-69
2022/06/30 02:10:06;;;;;;;1.40;0.90;;;17.90;99.90;;;;;;5022070;28;20022;-69
2022/06/30 02:12:45;;;;;;;2.33;1.55;;;17.80;99.90;;;;;;5021671;28;20036;-69
2022/06/30 02:15:12;;;;;;;4.03;1.45;;;17.80;99.90;;;;;;5022159;28;20032;-69
2022/06/30 02:17:42;;;;;;;2.03;1.10;;;17.70;99.90;;;;;;5021243;28;20033;-69
2022/06/30 02:20:09;;;;;;;1.83;1.15;;;17.80;99.90;;;;;;5021326;28;20124;-68
2022/06/30 02:22:35;;;;;;;1.83;1.27;;;17.70;99.90;;;;;;5021845;28;20034;-68
2022/06/30 02:25:01;;;;;;;2.80;1.48;;;17.70;99.90;;;;;;5021678;28;20021;-69
2022/06/30 02:27:26;;;;;;;2.67;1.80;;;17.60;99.90;;;;;;5021779;28;20117;-68
2022/06/30 02:30:02;;;;;;;3.22;1.40;;;17.60;99.90;;;;;;5022232;28;20124;-69
2022/06/30 02:32:35;;;;;;;3.13;1.85;;;17.60;99.90;;;;;;5021974;28;20029;-69
2022/06/30 02:35:01;;;;;;;1.83;1.15;;;17.50;99.90;;;;;;5025583;28;20098;-69
2022/06/30 02:37:27;;;;;;;2.97;1.50;;;17.50;99.90;;;;;;5025687;28;20034;-69
2022/06/30 02:39:52;;;;;;;1.85;1.50;;;17.40;99.90;;;;;;5025131;28;20048;-69
2022/06/30 02:42:19;;;;;;;3.22;1.83;;;17.40;99.90;;;;;;5025930;28;20029;-69
2022/06/30 02:44:44;;;;;;;2.40;1.35;;;17.40;99.90;;;;;;5025688;28;20764;-68
2022/06/30 02:47:10;;;;;;;1.50;1.10;;;17.40;99.90;;;;;;5024941;28;20072;-69
2022/06/30 02:49:37;;;;;;;1.80;1.20;;;17.30;99.90;;;;;;5025530;28;20084;-68
2022/06/30 02:52:03;;;;;;;1.80;1.35;;;17.20;99.90;;;;;;5025734;28;20049;-68
2022/06/30 02:54:28;;;;;;;2.92;1.52;;;17.30;99.90;;;;;;5025518;28;20026;-69
2022/06/30 02:56:54;;;;;;;2.38;1.33;;;17.20;99.90;;;;;;5025641;28;20022;-69
2022/06/30 02:59:20;;;;;;;1.92;1.30;;;17.20;99.90;;;;;;5025287;28;20056;-69
2022/06/30 03:01:45;;;;;;;1.98;1.52;;;17.20;99.90;;;;;;5024857;28;20022;-69
2022/06/30 03:04:11;;;;;;;3.90;1.65;;;17.20;99.90;;;;;;5025386;28;20022;-68
2022/06/30 03:06:37;;;;;;;2.92;1.48;;;17.20;99.90;;;;;;5025333;28;20546;-69
2022/06/30 03:09:03;;;;;;;1.75;1.48;;;17.20;99.90;;;;;;5025053;28;20030;-68
2022/06/30 03:11:28;;;;;;;2.67;1.40;;;17.10;99.90;;;;;;5024836;28;20022;-69
2022/06/30 03:13:54;;;;;;;2.53;1.42;;;17.10;99.90;;;;;;5025129;28;20029;-69
2022/06/30 03:16:20;;;;;;;1.83;1.17;;;17.00;99.90;;;;;;5025009;28;20424;-69
2022/06/30 03:18:46;;;;;;;1.67;1.30;;;17.00;99.90;;;;;;5024855;28;20029;-69
2022/06/30 03:21:12;;;;;;;2.22;1.08;;;17.00;99.90;;;;;;5024494;28;20045;-67
2022/06/30 03:23:37;;;;;;;3.10;1.50;;;16.90;99.90;;;;;;5024315;28;20022;-68
2022/06/30 03:26:04;;;;;;;3.92;1.65;;;17.00;99.90;;;;;;5024804;28;20053;-68
2022/06/30 03:28:30;;;;;;;2.10;1.27;;;17.00;99.90;;;;;;5024701;28;20061;-68
2022/06/30 03:31:06;;;;;;;3.33;1.73;;;16.90;99.90;;;;;;5024388;28;20022;-69
2022/06/30 03:33:32;;;;;;;1.73;1.25;;;16.90;99.90;;;;;;5025165;28;20040;-68
2022/06/30 03:35:58;;;;;;;2.40;1.40;;;16.90;99.90;;;;;;5024510;28;20033;-69
2022/06/30 03:38:24;;;;;;;1.52;1.35;;;16.90;99.90;;;;;;5024526;28;20022;-68
2022/06/30 03:40:49;;;;;;;2.92;1.50;;;16.90;99.90;;;;;;5023462;28;20052;-69
2022/06/30 03:43:18;;;;;;;7.80;1.83;;;16.90;99.90;;;;;;5024601;28;20030;-68
2022/06/30 03:45:45;;;;;;;5.45;1.52;;;16.90;99.90;;;;;;5023286;28;20074;-69
2022/06/30 03:48:10;;;;;;;2.58;1.20;;;16.90;99.90;;;;;;5024563;28;20381;-70
2022/06/30 03:50:36;;;;;;;2.63;1.70;;;16.90;99.90;;;;;;5024407;28;20038;-68
2022/06/30 03:53:02;;;;;;;2.05;1.23;;;16.90;99.90;;;;;;5024495;28;20046;-68
2022/06/30 03:55:28;;;;;;;2.05;1.20;;;16.90;99.90;;;;;;5024589;28;20077;-68
2022/06/30 03:57:54;;;;;;;1.70;1.25;;;16.90;99.90;;;;;;5023693;28;20026;-68
2022/06/30 04:00:21;;;;;;;3.38;1.88;;;16.90;99.90;;;;;;5024171;28;20041;-68
2022/06/30 04:02:46;;;;;;;2.30;1.40;;;16.90;99.90;;;;;;5024370;28;20026;-68
2022/06/30 04:05:12;;;;;;;2.30;1.50;;;16.90;99.90;;;;;;5023463;28;20026;-68
2022/06/30 04:07:45;;;;;;;3.67;1.55;;;16.90;99.90;;;;;;5024027;28;20030;-69
2022/06/30 04:10:13;;;;;;;2.28;1.70;;;17.00;99.90;;;;;;5024346;28;20034;-68
2022/06/30 04:12:39;;;;;;;2.17;1.48;;;17.00;99.90;;;;;;5023458;28;20109;-68
2022/06/30 04:15:05;;;;;;;3.03;1.60;;;17.00;99.90;;;;;;5023822;28;20034;-67
2022/06/30 04:17:34;;;;;;;2.35;1.27;;;17.00;99.90;;;;;;5023878;28;20036;-68
2022/06/30 04:20:04;;;;;;;3.17;1.75;;;17.10;99.90;;;;;;5023420;28;20050;-68
2022/06/30 04:22:30;;;;;;;3.15;1.50;;;17.10;99.90;;;;;;5023421;28;20033;-68
2022/06/30 04:24:56;;;;;;;3.03;1.65;;;17.10;99.90;;;;;;5023388;28;20018;-68
2022/06/30 04:27:22;;;;;;;3.47;1.55;;;17.10;99.90;;;;;;5023311;28;20068;-69
2022/06/30 04:29:47;;;;;;;2.03;1.50;;;17.20;99.90;;;;;;5024000;28;20080;-70
2022/06/30 04:34:57;;;;;;;2.90;1.42;;;17.30;99.90;;;;;;5023528;28;20033;-69
2022/06/30 04:37:23;;;;;;;2.78;1.50;;;17.20;99.90;;;;;;5023790;28;20100;-69
2022/06/30 04:39:49;;;;;;;2.17;1.50;;;17.30;99.90;;;;;;5021644;28;20101;-69
2022/06/30 04:42:14;;;;;;;8.20;1.90;;;17.40;99.90;;;;;;5023687;28;20034;-69
2022/06/30 04:44:41;;;;;;;3.40;1.60;;;17.30;99.90;;;;;;5023009;28;20049;-69
2022/06/30 04:47:07;;;;;;;2.55;1.30;;;17.40;99.90;;;;;;5022531;28;20144;-69
2022/06/30 04:49:32;;;;;;;6.65;1.90;;;17.40;99.90;;;;;;5021866;28;20065;-68
2022/06/30 04:52:08;;;;;;;2.92;1.58;;;17.50;99.90;;;;;;5021719;28;20760;-69
2022/06/30 04:54:33;;;;;;;2.20;1.15;;;17.50;99.90;;;;;;5022872;28;20045;-68
2022/06/30 04:56:59;;;;;;;2.08;1.23;;;17.50;99.90;;;;;;5016572;28;20026;-69
2022/06/30 04:59:24;;;;;;;2.35;1.83;;;17.60;99.90;;;;;;5022877;28;20056;-69
2022/06/30 05:01:50;;;;;;;3.20;2.03;;;17.60;99.90;;;;;;5015123;28;20022;-69
2022/06/30 05:04:15;;;;;;;1.90;1.27;;;17.60;99.90;;;;;;5018838;28;20030;-68
2022/06/30 05:06:41;;;;;;;2.55;1.15;;;17.70;99.90;;;;;;5019576;28;20029;-70
2022/06/30 05:09:06;;;;;;;3.17;2.25;;;17.70;99.90;;;;;;5021865;28;20033;-70
2022/06/30 05:11:33;;;;;;;3.22;1.63;;;17.80;99.90;;;;;;5019710;28;20087;-70
2022/06/30 05:13:58;;;;;;;3.83;2.00;;;17.90;99.90;;;;;;5021821;28;20030;-69
2022/06/30 05:16:33;;;;;;;2.38;1.80;;;17.80;99.90;;;;;;5019173;28;20049;-71
2022/06/30 05:18:58;;;;;;;4.03;2.22;;;17.90;99.90;;;;;;5021849;28;20053;-70
2022/06/30 05:21:24;;;;;;;2.40;1.67;;;17.90;99.90;;;;;;5020063;28;20029;-69
2022/06/30 05:26:34;;;;;;;2.90;1.48;;;18.00;99.90;;;;;;5022131;28;20106;-69
2022/06/30 05:28:59;;;;;;;2.50;1.50;;;18.10;99.90;;;;;;5021488;28;20057;-69
2022/06/30 05:31:25;;;;;;;2.97;1.42;;;18.10;99.90;;;;;;5022601;28;20056;-69
2022/06/30 05:33:50;;;;;;;8.50;2.17;;;18.10;99.90;;;;;;5019880;28;20068;-70
2022/06/30 05:36:16;;;;;;;4.80;2.17;;;18.20;99.90;;;;;;5021103;28;20037;-70
2022/06/30 05:38:41;;;;;;;4.10;2.22;;;18.20;99.90;;;;;;5020048;28;20077;-70
2022/06/30 05:41:07;;;;;;;4.43;1.85;;;18.20;99.90;;;;;;5021981;28;20048;-69
2022/06/30 05:43:33;;;;;;;2.78;1.75;;;18.30;99.90;;;;;;5020405;28;20026;-68
2022/06/30 05:45:58;;;;;;;2.55;1.48;;;18.30;99.90;;;;;;5021977;28;20054;-67
2022/06/30 05:48:24;;;;;;;3.60;1.48;;;18.50;99.90;;;;;;5021423;28;20026;-68
2022/06/30 05:50:49;;;;;;;2.47;1.38;;;18.50;99.90;;;;;;5020203;28;20030;-69
2022/06/30 05:53:16;;;;;;;3.22;1.85;;;18.50;99.90;;;;;;5021227;28;20041;-67
2022/06/30 05:55:41;;;;;;;2.67;1.85;;;18.50;99.90;;;;;;5021015;28;20579;-67
2022/06/30 05:58:07;;;;;;;2.85;1.85;;;18.50;99.90;;;;;;5022133;28;20058;-68
2022/06/30 06:00:33;;;;;;;2.95;1.67;;;18.60;99.90;;;;;;5020867;28;20049;-68
2022/06/30 06:02:59;;;;;;;3.13;1.48;;;18.70;99.90;;;;;;5019599;28;20036;-68
2022/06/30 06:05:25;;;;;;;5.85;1.98;;;18.70;99.90;;;;;;5021952;28;20078;-68
2022/06/30 06:07:51;;;;;;;4.80;1.98;;;18.80;99.90;;;;;;5019908;28;20148;-69
2022/06/30 06:10:18;;;;;;;2.95;1.75;;;18.90;99.90;;;;;;5021479;28;20018;-70
2022/06/30 06:12:44;;;;;;;7.97;2.00;;;18.90;99.90;;;;;;5022072;28;20021;-69
2022/06/30 06:15:14;;;;;;;2.55;1.73;;;19.00;99.90;;;;;;5021662;28;20057;-70
2022/06/30 06:17:45;;;;;;;3.80;1.80;;;19.00;99.90;;;;;;5021030;28;20072;-68
2022/06/30 06:20:12;;;;;;;2.22;1.60;;;19.10;99.90;;;;;;5021386;28;20077;-68
2022/06/30 06:22:38;;;;;;;1.45;1.30;;;19.20;99.90;;;;;;5021470;28;20026;-68
2022/06/30 06:25:04;;;;;;;4.18;2.22;;;19.20;99.90;;;;;;5020458;28;20037;-67
2022/06/30 06:27:29;;;;;;;4.10;1.90;;;19.30;99.90;;;;;;5021412;28;20044;-67
2022/06/30 06:29:55;;;;;;;3.25;1.92;;;19.40;99.90;;;;;;5021536;28;20053;-69
2022/06/30 06:32:22;;;;;;;2.88;1.58;;;19.40;99.90;;;;;;5021624;28;20038;-69
2022/06/30 06:34:48;;;;;;;2.15;1.40;;;19.50;99.90;;;;;;5020093;28;20018;-70
2022/06/30 06:37:14;;;;;;;3.88;1.95;;;19.60;99.90;;;;;;5020607;28;20053;-68
2022/06/30 06:39:40;;;;;;;3.40;1.90;;;19.70;99.90;;;;;;5020091;28;20046;-68
2022/06/30 06:42:05;;;;;;;6.32;1.65;;;19.80;99.90;;;;;;5021009;28;20030;-69
2022/06/30 06:44:31;;;;;;;6.07;2.15;;;19.90;99.90;;;;;;5020201;28;20112;-69
2022/06/30 06:46:56;;;;;;;3.35;2.08;;;20.00;99.90;;;;;;5018505;28;20057;-69
2022/06/30 06:49:22;;;;;;;5.47;2.22;;;20.10;99.90;;;;;;5019304;28;20022;-69
2022/06/30 06:51:48;;;;;;;3.30;1.90;;;20.20;99.90;;;;;;5017741;28;20047;-69
2022/06/30 06:54:13;;;;;;;3.17;1.92;;;20.20;99.90;;;;;;5021457;28;20109;-68
2022/06/30 06:56:41;;;;;;;3.63;1.50;;;20.40;99.90;;;;;;5021493;28;20034;-69
2022/06/30 06:59:07;;;;;;;3.20;2.10;;;20.50;99.90;;;;;;5019796;28;20034;-69
2022/06/30 07:01:33;;;;;;;5.70;2.38;;;20.60;99.90;;;;;;5021044;28;20029;-69
2022/06/30 07:03:58;;;;;;;4.45;1.58;;;20.70;99.90;;;;;;5021637;28;20090;-68
2022/06/30 07:06:24;;;;;;;4.15;1.75;;;20.80;99.90;;;;;;5021033;28;20105;-68
2022/06/30 07:08:50;;;;;;;7.30;2.30;;;20.80;99.90;;;;;;5020007;28;20048;-68
2022/06/30 07:11:17;;;;;;;4.47;1.92;;;21.00;99.90;;;;;;5019723;28;20038;-69
2022/06/30 07:13:43;;;;;;;5.97;1.98;;;21.10;99.90;;;;;;5019622;28;20032;-67
2022/06/30 07:16:09;;;;;;;4.70;1.90;;;21.10;99.90;;;;;;5019984;28;20038;-68
2022/06/30 07:18:36;;;;;;;27.98;2.35;;;21.30;99.90;;;;;;5020849;28;20022;-69
2022/06/30 07:21:03;;;;;;;2.65;1.65;;;21.30;99.90;;;;;;5017901;28;20037;-69
2022/06/30 07:23:29;;;;;;;4.28;2.33;;;21.40;99.90;;;;;;5024135;28;20025;-69
2022/06/30 07:25:55;;;;;;;5.45;2.28;;;21.50;99.90;;;;;;5024472;28;20026;-69
2022/06/30 07:28:20;;;;;;;2.17;1.67;;;21.50;99.90;;;;;;5024020;28;20030;-70
2022/06/30 07:30:46;;;;;;;2.45;1.80;;;21.70;99.90;;;;;;5024787;28;20026;-70
2022/06/30 07:33:12;;;;;;;24.25;1.85;;;21.80;99.90;;;;;;5023819;28;20025;-68
2022/06/30 07:35:38;;;;;;;4.25;1.83;;;21.80;99.90;;;;;;5024682;28;20029;-69
2022/06/30 07:38:03;;;;;;;3.30;1.83;;;21.90;99.90;;;;;;5024691;28;20018;-68
2022/06/30 07:40:29;;;;;;;3.83;2.10;;;22.10;99.90;;;;;;5022987;28;20048;-70
2022/06/30 07:42:55;;;;;;;4.85;2.08;;;22.10;99.90;;;;;;5024432;28;20040;-69
2022/06/30 07:45:22;;;;;;;1.73;1.42;;;22.20;99.90;;;;;;5024486;28;20140;-68
2022/06/30 07:47:49;;;;;;;4.68;2.50;;;22.20;99.90;;;;;;5024345;28;20058;-69
2022/06/30 07:50:17;;;;;;;1.83;1.15;;;22.30;99.90;;;;;;5023670;28;20028;-69
2022/06/30 07:52:47;;;;;;;8.50;2.28;;;22.40;99.90;;;;;;5024099;28;20702;-69
2022/06/30 07:55:14;;;;;;;2.00;1.42;;;22.50;99.90;;;;;;5022491;28;20053;-69
2022/06/30 07:57:45;;;;;;;2.17;1.60;;;22.60;99.90;;;;;;5024394;28;20026;-68
2022/06/30 08:00:11;;;;;;;2.58;1.40;;;22.70;99.90;;;;;;5023967;28;20026;-70
2022/06/30 08:02:38;;;;;;;2.83;1.85;;;22.80;99.90;;;;;;5024268;28;20850;-69
2022/06/30 08:05:04;;;;;;;2.78;1.75;;;22.80;99.90;;;;;;5024109;28;20018;-70
2022/06/30 08:07:29;;;;;;;2.58;1.95;;;22.90;99.90;;;;;;5022937;28;20021;-72
2022/06/30 08:09:55;;;;;;;5.05;2.40;;;23.00;99.90;;;;;;5024063;28;20049;-72
2022/06/30 08:12:21;;;;;;;3.40;1.80;;;23.00;99.90;;;;;;5023623;28;20457;-69
2022/06/30 08:14:47;;;;;;;2.90;1.63;;;23.00;99.90;;;;;;5023978;28;20040;-68
2022/06/30 08:17:13;;;;;;;5.50;2.38;;;23.10;99.90;;;;;;5020446;28;20105;-68
2022/06/30 08:19:38;;;;;;;10.60;2.05;;;23.20;99.90;;;;;;5022645;28;20026;-71
2022/06/30 08:22:04;;;;;;;3.90;2.13;;;23.30;99.90;;;;;;5022622;28;20030;-68
2022/06/30 08:24:30;;;;;;;2.65;1.77;;;23.30;99.90;;;;;;5023949;28;20028;-69
2022/06/30 08:26:58;;;;;;;4.57;1.92;;;23.40;99.90;;;;;;5021290;28;20072;-70
2022/06/30 08:29:24;;;;;;;4.57;1.77;;;23.50;99.90;;;;;;5022003;28;20030;-69
2022/06/30 08:31:54;;;;;;;5.00;2.42;;;23.50;99.90;;;;;;5018159;28;20085;-71
2022/06/30 08:34:19;;;;;;;4.13;1.83;;;23.60;99.90;;;;;;5021273;28;20045;-71
2022/06/30 08:36:45;;;;;;;4.15;1.77;;;23.60;99.90;;;;;;5020859;28;20386;-68
2022/06/30 08:42:02;;;;;;;6.15;1.92;;;23.70;99.90;;;;;;5013934;28;20041;-68
2022/06/30 08:42:02;;;;;;;2.25;1.45;;;23.70;99.90;;;;;;5023218;28;20029;-68
2022/06/30 08:44:33;;;;;;;4.75;2.13;;;23.90;99.90;;;;;;5021574;28;20048;-67
2022/06/30 08:46:59;;;;;;;4.07;1.77;;;24.00;99.90;;;;;;5019122;28;20560;-67
2022/06/30 08:49:26;;;;;;;4.13;1.75;;;24.00;99.90;;;;;;5022152;28;20030;-68
2022/06/30 08:51:55;;;;;;;1.98;1.15;;;24.10;99.90;;;;;;5019558;28;20049;-69
2022/06/30 08:54:22;;;;;;;3.95;1.95;;;24.20;99.90;;;;;;5020837;28;20033;-72
2022/06/30 08:56:50;;;;;;;1.40;1.13;;;24.20;99.90;;;;;;5022712;28;20038;-68
2022/06/30 08:59:17;;;;;;;2.45;1.17;;;24.30;99.90;;;;;;5020986;28;20537;-71
2022/06/30 09:01:43;;;;;;;3.20;1.80;;;24.40;99.90;;;;;;5022364;28;20024;-69
2022/06/30 09:04:12;;;;;;;2.25;1.05;;;24.50;99.90;;;;;;5022706;28;20034;-71
2022/06/30 09:06:42;;;;;;;3.83;1.42;;;24.60;99.90;;;;;;5022792;28;20034;-68
2022/06/30 09:09:07;;;;;;;2.88;1.63;;;24.60;99.90;;;;;;5022526;28;20022;-71
2022/06/30 09:12:02;;;;;;;2.90;1.70;;;24.80;99.90;;;;;;5015147;28;20025;-73
2022/06/30 09:14:52;;;;;;;2.10;1.45;;;24.90;99.90;;;;;;5016713;28;20042;-68
2022/06/30 09:17:21;;;;;;;3.05;1.58;;;25.00;99.90;;;;;;5017941;28;20096;-67
2022/06/30 09:20:05;;;;;;;2.40;1.42;;;25.20;99.90;;;;;;5017744;28;20042;-74
2022/06/30 09:22:37;;;;;;;2.33;1.10;;;25.20;99.90;;;;;;5016657;28;20026;-70
2022/06/30 09:25:07;;;;;;;3.50;1.70;;;25.20;99.90;;;;;;5020136;28;20026;-69
2022/06/30 09:27:41;;;;;;;3.55;1.70;;;25.30;99.90;;;;;;5011412;28;20045;-68
2022/06/30 09:30:23;;;;;;;3.72;1.52;;;25.40;99.90;;;;;;5017929;28;20033;-69
2022/06/30 09:32:56;;;;;;;1.52;0.95;;;25.50;99.90;;;;;;5017537;28;20386;-68
2022/06/30 09:35:28;;;;;;;1.67;1.33;;;25.60;99.90;;;;;;5021157;28;20028;-69
2022/06/30 09:38:07;;;;;;;1.98;1.40;;;25.80;99.90;;;;;;5018239;28;20422;-71
2022/06/30 09:41:00;;;;;;;2.47;1.48;;;25.90;99.90;;;;;;5019507;28;20038;-68
2022/06/30 09:43:36;;;;;;;3.88;1.77;;;25.90;99.90;;;;;;5019936;28;20036;-68
2022/06/30 09:46:04;;;;;;;2.13;1.27;;;25.90;99.90;;;;;;5015043;28;20030;-69
2022/06/30 09:48:34;;;;;;;2.25;1.35;;;25.90;99.90;;;;;;5020249;28;20030;-69
2022/06/30 09:51:01;;;;;;;2.38;1.50;;;26.00;99.90;;;;;;5019338;28;20025;-69
2022/06/30 09:53:27;;;;;;;1.77;1.00;;;26.10;99.90;;;;;;5018520;28;20032;-70
2022/06/30 09:55:53;;;;;;;2.85;1.50;;;26.20;99.90;;;;;;5018294;28;20101;-70
2022/06/30 09:58:30;;;;;;;1.58;1.35;;;26.20;99.90;;;;;;5019652;28;20027;-70
2022/06/30 10:00:59;;;;;;;2.20;1.42;;;26.20;99.90;;;;;;5016172;28;20045;-69
2022/06/30 10:03:25;;;;;;;2.28;1.33;;;26.30;99.90;;;;;;5020385;28;20022;-69
2022/06/30 10:06:07;;;;;;;3.63;1.50;;;26.30;99.90;;;;;;5019018;28;20030;-71
2022/06/30 10:08:33;;;;;;;2.38;1.42;;;26.40;99.90;;;;;;5021538;28;20022;-70
2022/06/30 10:10:59;;;;;;;1.95;1.40;;;26.50;99.90;;;;;;5019873;28;20052;-68
2022/06/30 10:13:26;;;;;;;3.00;1.50;;;26.50;99.90;;;;;;5019143;28;20037;-70
2022/06/30 10:15:55;;;;;;;4.45;2.28;;;26.40;99.90;;;;;;5019644;28;20022;-70
2022/06/30 10:18:25;;;;;;;5.90;2.03;;;26.40;99.90;;;;;;5019724;28;20038;-70
2022/06/30 10:20:55;;;;;;;10.38;2.08;;;26.30;99.90;;;;;;5019224;28;20108;-71
2022/06/30 10:23:22;;;;;;;1.75;1.30;;;26.20;99.90;;;;;;5021737;28;20080;-72
2022/06/30 10:25:50;;;;;;;3.05;1.48;;;26.20;99.90;;;;;;5015615;28;21166;-71
2022/06/30 10:28:23;;;;;;;4.82;1.83;;;26.20;99.90;;;;;;5021099;28;20037;-69
2022/06/30 10:30:55;;;;;;;1.58;1.25;;;26.30;99.90;;;;;;5017471;28;20097;-71
2022/06/30 10:33:35;;;;;;;3.38;1.63;;;26.50;99.90;;;;;;5020309;28;20028;-71
2022/06/30 10:36:14;;;;;;;2.05;1.10;;;26.60;99.90;;;;;;5021798;28;20063;-70
2022/06/30 10:38:39;;;;;;;3.15;1.83;;;26.70;99.90;;;;;;5017804;28;20033;-69
2022/06/30 10:41:14;;;;;;;5.25;1.75;;;26.80;99.90;;;;;;5019782;28;20038;-71
2022/06/30 10:44:05;;;;;;;3.85;1.88;;;26.80;99.90;;;;;;5020850;28;20061;-69
2022/06/30 10:46:30;;;;;;;2.00;1.35;;;26.90;99.90;;;;;;5021235;28;20066;-69
2022/06/30 10:48:56;;;;;;;2.45;1.60;;;26.90;99.90;;;;;;5021045;28;20086;-70
2022/06/30 10:51:25;;;;;;;2.17;1.42;;;27.10;99.90;;;;;;5021551;28;20033;-69
2022/06/30 10:53:55;;;;;;;2.15;1.67;;;27.30;99.90;;;;;;5020744;28;20033;-69
2022/06/30 10:56:41;;;;;;;1.80;1.20;;;27.40;99.90;;;;;;5025401;28;20022;-70
2022/06/30 10:59:16;;;;;;;2.40;1.63;;;27.60;99.90;;;;;;5025328;28;20505;-68
2022/06/30 11:02:07;;;;;;;1.75;1.58;;;27.60;99.90;;;;;;5023892;28;20089;-72
2022/06/30 11:04:37;;;;;;;2.42;1.52;;;27.70;99.90;;;;;;5024104;28;20465;-70
2022/06/30 11:07:21;;;;;;;1.95;1.33;;;27.70;99.90;;;;;;5024971;28;20102;-69
2022/06/30 11:09:47;;;;;;;1.80;1.38;;;27.80;99.90;;;;;;5021543;28;20045;-71
2022/06/30 11:12:24;;;;;;;2.30;1.30;;;28.00;99.90;;;;;;5025707;28;20021;-69
2022/06/30 11:14:54;;;;;;;5.38;1.63;;;28.10;99.90;;;;;;5024679;28;20025;-69
2022/06/30 11:17:31;;;;;;;2.13;1.30;;;28.30;99.90;;;;;;5024844;28;20037;-70
2022/06/30 11:20:00;;;;;;;1.92;1.33;;;28.50;99.90;;;;;;5021157;28;20118;-72
2022/06/30 11:22:28;;;;;;;7.38;1.48;;;28.60;99.90;;;;;;5022993;28;20030;-71
2022/06/30 11:24:57;;;;;;;3.22;1.63;;;28.60;99.90;;;;;;5022365;28;20018;-72
2022/06/30 11:27:25;;;;;;;4.97;1.65;;;28.70;99.90;;;;;;5024089;28;20081;-71
2022/06/30 11:29:59;;;;;;;2.38;1.23;;;28.70;99.90;;;;;;5021828;28;20389;-69
2022/06/30 11:32:26;;;;;;;2.65;1.45;;;28.70;99.90;;;;;;5021850;28;20089;-73
2022/06/30 11:34:52;;;;;;;2.25;1.58;;;28.70;99.90;;;;;;5022823;28;20109;-68
2022/06/30 11:37:22;;;;;;;2.42;1.60;;;28.70;99.90;;;;;;5016864;28;20042;-72
2022/06/30 11:40:00;;;;;;;2.22;1.45;;;28.80;99.90;;;;;;5017840;28;20030;-69
2022/06/30 11:42:26;;;;;;;1.50;0.95;;;28.90;99.90;;;;;;5015786;28;20026;-69
2022/06/30 11:44:52;;;;;;;1.40;1.10;;;29.00;99.90;;;;;;5017592;28;20025;-69
2022/06/30 11:47:20;;;;;;;1.98;1.45;;;29.20;99.90;;;;;;5020753;28;20702;-69
2022/06/30 11:49:59;;;;;;;2.03;1.35;;;29.20;99.90;;;;;;5022448;28;20030;-70
2022/06/30 11:52:37;;;;;;;2.72;1.45;;;29.30;99.90;;;;;;5017468;28;20029;-69
2022/06/30 11:55:12;;;;;;;1.67;1.30;;;29.30;99.90;;;;;;5019786;28;20110;-70
2022/06/30 11:57:41;;;;;;;1.92;0.85;;;29.40;99.90;;;;;;5022705;28;20030;-70
2022/06/30 12:00:20;;;;;;;4.43;1.55;;;29.40;99.90;;;;;;5023058;28;20041;-70
2022/06/30 12:02:47;;;;;;;2.85;1.58;;;29.50;99.90;;;;;;5022109;28;20545;-71
2022/06/30 12:05:15;;;;;;;2.22;1.38;;;29.70;99.90;;;;;;5019893;28;20454;-70
2022/06/30 12:07:42;;;;;;;2.20;1.30;;;29.80;99.90;;;;;;5021543;28;20561;-69
2022/06/30 12:10:10;;;;;;;5.45;1.38;;;29.80;99.90;;;;;;5019399;28;20018;-70
2022/06/30 12:12:36;;;;;;;3.85;1.40;;;29.90;99.90;;;;;;5023326;28;20045;-70
2022/06/30 12:15:06;;;;;;;2.47;1.58;;;29.90;99.90;;;;;;5024383;28;20033;-69
2022/06/30 12:17:38;;;;;;;1.75;1.50;;;30.00;99.90;;;;;;5020340;28;20044;-68
2022/06/30 12:20:06;;;;;;;1.77;1.58;;;30.10;99.90;;;;;;5021115;28;20041;-70
2022/06/30 12:22:33;;;;;;;2.20;1.65;;;30.20;99.90;;;;;;5023404;28;20053;-69
2022/06/30 12:25:06;;;;;;;2.33;1.38;;;30.30;99.90;;;;;;5023797;28;20057;-69
2022/06/30 12:27:43;;;;;;;1.40;1.20;;;30.50;99.90;;;;;;5022914;28;20033;-69
2022/06/30 12:30:12;;;;;;;1.45;1.05;;;30.70;99.90;;;;;;5024380;28;20036;-70
2022/06/30 12:32:38;;;;;;;2.90;1.70;;;30.90;99.90;;;;;;5023553;28;20021;-69
2022/06/30 12:35:06;;;;;;;2.22;1.23;;;31.00;99.90;;;;;;5023047;28;21073;-69
2022/06/30 12:37:43;;;;;;;2.33;1.40;;;31.20;99.90;;;;;;5012904;28;22812;-69
2022/06/30 12:40:14;;;;;;;6.65;1.58;;;31.40;99.90;;;;;;5014024;28;20045;-69
2022/06/30 12:42:51;;;;;;;2.30;1.25;;;31.40;99.90;;;;;;5020618;28;20044;-70
2022/06/30 12:45:36;;;;;;;1.60;1.20;;;31.50;99.90;;;;;;5010639;28;20030;-70
2022/06/30 12:48:03;;;;;;;2.80;1.65;;;31.70;99.90;;;;;;5016569;28;20073;-71
2022/06/30 12:50:39;;;;;;;1.92;1.25;;;31.80;99.90;;;;;;5018682;28;20058;-69
2022/06/30 12:53:32;;;;;;;1.88;1.35;;;31.90;99.90;;;;;;5022096;28;20041;-71
2022/06/30 12:56:22;;;;;;;12.02;1.75;;;32.00;99.90;;;;;;5021303;28;20034;-69
2022/06/30 12:58:59;;;;;;;3.00;1.45;;;32.10;99.90;;;;;;5019769;28;20033;-70
2022/06/30 13:01:27;;;;;;;1.75;1.15;;;31.80;99.90;;;;;;5020362;28;20034;-70